sensor_id;sensor_type;location;lat;lon;timestamp;temperature;humidity
71254;HTU21D;59019;47.638;18.966;2022-11-03T00:00:27;10.20;99.38
71254;HTU21D;59019;47.638;18.966;2022-11-03T00:02:52;10.14;99.92
71254;HTU21D;59019;47.638;18.966;2022-11-03T00:05:18;10.10;100.06
71254;HTU21D;59019;47.638;18.966;2022-11-03T00:08:02;10.10;99.91
71254;HTU21D;59019;47.638;18.966;2022-11-03T00:10:29;10.06;99.85
71254;HTU21D;59019;47.638;18.966;2022-11-03T00:12:55;10.05;99.55
71254;HTU21D;59019;47.638;18.966;2022-11-03T00:15:20;9.94;99.43
71254;HTU21D;59019;47.638;18.966;2022-11-03T00:17:46;9.93;99.63
71254;HTU21D;59019;47.638;18.966;2022-11-03T00:20:12;9.93;99.36
71254;HTU21D;59019;47.638;18.966;2022-11-03T00:22:37;9.92;99.51
71254;HTU21D;59019;47.638;18.966;2022-11-03T00:25:03;9.89;99.47
71254;HTU21D;59019;47.638;18.966;2022-11-03T00:27:29;9.85;98.94
71254;HTU21D;59019;47.638;18.966;2022-11-03T00:29:54;9.68;99.44
71254;HTU21D;59019;47.638;18.966;2022-11-03T00:32:21;9.63;99.77
71254;HTU21D;59019;47.638;18.966;2022-11-03T00:34:47;9.55;99.80
71254;HTU21D;59019;47.638;18.966;2022-11-03T00:37:12;9.57;99.68
71254;HTU21D;59019;47.638;18.966;2022-11-03T00:39:38;9.53;99.45
71254;HTU21D;59019;47.638;18.966;2022-11-03T00:42:03;9.44;99.79
71254;HTU21D;59019;47.638;18.966;2022-11-03T00:44:29;9.37;100.11
71254;HTU21D;59019;47.638;18.966;2022-11-03T00:46:55;9.26;100.44
71254;HTU21D;59019;47.638;18.966;2022-11-03T00:49:21;9.21;100.96
71254;HTU21D;59019;47.638;18.966;2022-11-03T00:51:46;9.15;101.07
71254;HTU21D;59019;47.638;18.966;2022-11-03T00:54:12;9.14;101.28
71254;HTU21D;59019;47.638;18.966;2022-11-03T00:56:39;9.06;101.52
71254;HTU21D;59019;47.638;18.966;2022-11-03T00:59:07;9.16;101.30
71254;HTU21D;59019;47.638;18.966;2022-11-03T01:01:52;9.17;100.67
71254;HTU21D;59019;47.638;18.966;2022-11-03T01:04:18;9.11;100.93
71254;HTU21D;59019;47.638;18.966;2022-11-03T01:07:04;9.08;101.27
71254;HTU21D;59019;47.638;18.966;2022-11-03T01:14:35;9.01;101.14
71254;HTU21D;59019;47.638;18.966;2022-11-03T01:17:04;9.05;100.48
71254;HTU21D;59019;47.638;18.966;2022-11-03T01:19:29;9.05;99.75
71254;HTU21D;59019;47.638;18.966;2022-11-03T01:21:55;8.94;99.84
71254;HTU21D;59019;47.638;18.966;2022-11-03T01:24:20;8.78;100.29
71254;HTU21D;59019;47.638;18.966;2022-11-03T01:26:47;8.71;100.74
71254;HTU21D;59019;47.638;18.966;2022-11-03T01:29:13;8.70;101.05
71254;HTU21D;59019;47.638;18.966;2022-11-03T01:31:39;8.63;100.95
71254;HTU21D;59019;47.638;18.966;2022-11-03T01:34:04;8.71;100.68
71254;HTU21D;59019;47.638;18.966;2022-11-03T01:36:30;8.72;100.13
71254;HTU21D;59019;47.638;18.966;2022-11-03T01:38:56;8.60;101.01
71254;HTU21D;59019;47.638;18.966;2022-11-03T01:41:26;8.58;101.17
71254;HTU21D;59019;47.638;18.966;2022-11-03T01:49:40;8.50;101.21
71254;HTU21D;59019;47.638;18.966;2022-11-03T01:52:18;8.48;101.52
71254;HTU21D;59019;47.638;18.966;2022-11-03T01:54:49;8.52;101.39
71254;HTU21D;59019;47.638;18.966;2022-11-03T01:57:20;8.57;101.26
71254;HTU21D;59019;47.638;18.966;2022-11-03T01:59:47;8.53;100.93
71254;HTU21D;59019;47.638;18.966;2022-11-03T02:02:13;8.56;101.09
71254;HTU21D;59019;47.638;18.966;2022-11-03T02:04:39;8.59;100.32
71254;HTU21D;59019;47.638;18.966;2022-11-03T02:09:46;8.50;99.67
71254;HTU21D;59019;47.638;18.966;2022-11-03T02:12:13;8.41;99.45
71254;HTU21D;59019;47.638;18.966;2022-11-03T02:14:47;8.53;98.54
71254;HTU21D;59019;47.638;18.966;2022-11-03T02:17:13;8.56;98.17
71254;HTU21D;59019;47.638;18.966;2022-11-03T02:20:29;8.64;97.91
71254;HTU21D;59019;47.638;18.966;2022-11-03T02:28:07;8.32;98.42
71254;HTU21D;59019;47.638;18.966;2022-11-03T02:36:27;8.63;96.31
71254;HTU21D;59019;47.638;18.966;2022-11-03T02:41:25;9.00;94.89
71254;HTU21D;59019;47.638;18.966;2022-11-03T02:43:51;9.07;94.57
71254;HTU21D;59019;47.638;18.966;2022-11-03T02:46:19;9.24;92.43
71254;HTU21D;59019;47.638;18.966;2022-11-03T02:48:46;9.42;89.41
71254;HTU21D;59019;47.638;18.966;2022-11-03T02:51:13;9.64;89.55
71254;HTU21D;59019;47.638;18.966;2022-11-03T02:53:45;9.66;88.83
71254;HTU21D;59019;47.638;18.966;2022-11-03T02:56:17;9.67;89.25
71254;HTU21D;59019;47.638;18.966;2022-11-03T02:58:59;9.47;89.47
71254;HTU21D;59019;47.638;18.966;2022-11-03T03:04:07;9.14;91.79
71254;HTU21D;59019;47.638;18.966;2022-11-03T03:06:35;8.98;92.08
71254;HTU21D;59019;47.638;18.966;2022-11-03T03:09:05;8.92;91.60
71254;HTU21D;59019;47.638;18.966;2022-11-03T03:11:32;8.73;92.46
71254;HTU21D;59019;47.638;18.966;2022-11-03T03:16:34;8.58;92.88
71254;HTU21D;59019;47.638;18.966;2022-11-03T03:19:29;8.44;92.37
71254;HTU21D;59019;47.638;18.966;2022-11-03T03:22:02;8.33;92.27
71254;HTU21D;59019;47.638;18.966;2022-11-03T03:27:28;8.24;92.16
71254;HTU21D;59019;47.638;18.966;2022-11-03T03:29:59;8.19;92.57
71254;HTU21D;59019;47.638;18.966;2022-11-03T03:32:27;8.16;92.66
71254;HTU21D;59019;47.638;18.966;2022-11-03T03:34:57;8.12;92.58
71254;HTU21D;59019;47.638;18.966;2022-11-03T03:37:25;8.12;92.24
71254;HTU21D;59019;47.638;18.966;2022-11-03T03:39:55;8.00;92.77
71254;HTU21D;59019;47.638;18.966;2022-11-03T03:42:24;7.93;93.14
71254;HTU21D;59019;47.638;18.966;2022-11-03T03:44:51;7.94;93.76
71254;HTU21D;59019;47.638;18.966;2022-11-03T03:47:27;7.76;93.95
71254;HTU21D;59019;47.638;18.966;2022-11-03T03:49:53;7.82;93.73
71254;HTU21D;59019;47.638;18.966;2022-11-03T03:52:21;7.77;93.39
71254;HTU21D;59019;47.638;18.966;2022-11-03T03:54:46;7.62;93.99
71254;HTU21D;59019;47.638;18.966;2022-11-03T03:57:14;7.55;94.73
71254;HTU21D;59019;47.638;18.966;2022-11-03T03:59:43;7.44;94.62
71254;HTU21D;59019;47.638;18.966;2022-11-03T04:02:10;7.43;94.30
71254;HTU21D;59019;47.638;18.966;2022-11-03T04:04:36;7.44;94.14
71254;HTU21D;59019;47.638;18.966;2022-11-03T04:07:01;7.32;94.61
71254;HTU21D;59019;47.638;18.966;2022-11-03T04:09:45;7.07;96.09
71254;HTU21D;59019;47.638;18.966;2022-11-03T04:12:11;7.05;96.55
71254;HTU21D;59019;47.638;18.966;2022-11-03T04:14:55;7.03;96.89
71254;HTU21D;59019;47.638;18.966;2022-11-03T04:17:44;7.00;96.68
71254;HTU21D;59019;47.638;18.966;2022-11-03T04:20:28;7.01;97.00
71254;HTU21D;59019;47.638;18.966;2022-11-03T04:23:18;6.97;96.34
71254;HTU21D;59019;47.638;18.966;2022-11-03T04:25:50;6.95;96.71
71254;HTU21D;59019;47.638;18.966;2022-11-03T04:28:17;6.84;97.03
71254;HTU21D;59019;47.638;18.966;2022-11-03T04:30:43;6.81;97.65
71254;HTU21D;59019;47.638;18.966;2022-11-03T04:33:13;6.85;97.53
71254;HTU21D;59019;47.638;18.966;2022-11-03T04:35:40;6.81;97.24
71254;HTU21D;59019;47.638;18.966;2022-11-03T04:40:39;6.84;97.52
71254;HTU21D;59019;47.638;18.966;2022-11-03T04:43:11;6.79;97.09
71254;HTU21D;59019;47.638;18.966;2022-11-03T04:45:37;6.79;96.93
71254;HTU21D;59019;47.638;18.966;2022-11-03T04:48:13;6.75;97.01
71254;HTU21D;59019;47.638;18.966;2022-11-03T04:50:40;6.69;96.90
71254;HTU21D;59019;47.638;18.966;2022-11-03T04:53:13;6.65;97.14
71254;HTU21D;59019;47.638;18.966;2022-11-03T04:55:40;6.54;97.14
71254;HTU21D;59019;47.638;18.966;2022-11-03T04:58:29;6.44;97.88
71254;HTU21D;59019;47.638;18.966;2022-11-03T05:00:58;6.39;98.55
71254;HTU21D;59019;47.638;18.966;2022-11-03T05:03:33;6.40;98.48
71254;HTU21D;59019;47.638;18.966;2022-11-03T05:06:01;6.41;97.79
71254;HTU21D;59019;47.638;18.966;2022-11-03T05:08:33;6.44;97.07
71254;HTU21D;59019;47.638;18.966;2022-11-03T05:10:59;6.21;98.39
71254;HTU21D;59019;47.638;18.966;2022-11-03T05:13:27;6.15;99.22
71254;HTU21D;59019;47.638;18.966;2022-11-03T05:16:03;6.15;99.19
71254;HTU21D;59019;47.638;18.966;2022-11-03T05:18:32;6.08;99.73
71254;HTU21D;59019;47.638;18.966;2022-11-03T05:21:08;6.06;100.13
71254;HTU21D;59019;47.638;18.966;2022-11-03T05:23:40;6.06;100.45
71254;HTU21D;59019;47.638;18.966;2022-11-03T05:26:13;6.10;100.32
71254;HTU21D;59019;47.638;18.966;2022-11-03T05:28:41;6.11;99.98
71254;HTU21D;59019;47.638;18.966;2022-11-03T05:31:28;6.06;99.99
71254;HTU21D;59019;47.638;18.966;2022-11-03T05:33:59;6.06;100.92
71254;HTU21D;59019;47.638;18.966;2022-11-03T05:36:28;6.09;101.15
71254;HTU21D;59019;47.638;18.966;2022-11-03T05:39:30;6.12;101.13
71254;HTU21D;59019;47.638;18.966;2022-11-03T05:41:58;6.16;101.18
71254;HTU21D;59019;47.638;18.966;2022-11-03T05:44:35;6.19;101.38
71254;HTU21D;59019;47.638;18.966;2022-11-03T05:47:12;6.26;101.10
71254;HTU21D;59019;47.638;18.966;2022-11-03T05:49:38;6.25;101.03
71254;HTU21D;59019;47.638;18.966;2022-11-03T05:52:07;6.22;101.24
71254;HTU21D;59019;47.638;18.966;2022-11-03T05:54:36;6.33;100.87
71254;HTU21D;59019;47.638;18.966;2022-11-03T05:57:09;6.45;100.25
71254;HTU21D;59019;47.638;18.966;2022-11-03T05:59:36;6.55;99.68
71254;HTU21D;59019;47.638;18.966;2022-11-03T06:02:07;6.60;99.18
71254;HTU21D;59019;47.638;18.966;2022-11-03T06:04:38;6.63;98.64
71254;HTU21D;59019;47.638;18.966;2022-11-03T06:07:22;6.54;98.41
71254;HTU21D;59019;47.638;18.966;2022-11-03T06:09:49;6.59;98.43
71254;HTU21D;59019;47.638;18.966;2022-11-03T06:12:18;6.45;97.89
71254;HTU21D;59019;47.638;18.966;2022-11-03T06:14:44;6.44;98.78
71254;HTU21D;59019;47.638;18.966;2022-11-03T06:17:21;6.45;99.36
71254;HTU21D;59019;47.638;18.966;2022-11-03T06:19:48;6.55;99.09
71254;HTU21D;59019;47.638;18.966;2022-11-03T06:24:44;6.58;98.89
71254;HTU21D;59019;47.638;18.966;2022-11-03T06:27:19;6.64;98.48
71254;HTU21D;59019;47.638;18.966;2022-11-03T06:29:52;6.69;98.24
71254;HTU21D;59019;47.638;18.966;2022-11-03T06:32:20;6.69;97.94
71254;HTU21D;59019;47.638;18.966;2022-11-03T06:34:51;6.69;97.49
71254;HTU21D;59019;47.638;18.966;2022-11-03T06:39:46;6.70;97.58
71254;HTU21D;59019;47.638;18.966;2022-11-03T06:42:13;6.73;97.87
71254;HTU21D;59019;47.638;18.966;2022-11-03T06:44:43;6.81;98.23
71254;HTU21D;59019;47.638;18.966;2022-11-03T06:49:52;6.95;99.08
71254;HTU21D;59019;47.638;18.966;2022-11-03T06:52:38;7.12;99.03
71254;HTU21D;59019;47.638;18.966;2022-11-03T06:55:14;7.20;98.94
71254;HTU21D;59019;47.638;18.966;2022-11-03T06:57:47;7.34;98.78
71254;HTU21D;59019;47.638;18.966;2022-11-03T07:03:42;7.49;98.70
71254;HTU21D;59019;47.638;18.966;2022-11-03T07:08:31;7.67;99.00
71254;HTU21D;59019;47.638;18.966;2022-11-03T07:11:15;7.75;99.04
71254;HTU21D;59019;47.638;18.966;2022-11-03T07:13:41;7.83;98.81
71254;HTU21D;59019;47.638;18.966;2022-11-03T07:18:59;7.90;99.29
71254;HTU21D;59019;47.638;18.966;2022-11-03T07:24:03;8.13;99.71
71254;HTU21D;59019;47.638;18.966;2022-11-03T07:26:31;8.28;99.77
71254;HTU21D;59019;47.638;18.966;2022-11-03T07:28:59;8.46;99.28
71254;HTU21D;59019;47.638;18.966;2022-11-03T07:31:30;8.63;98.97
71254;HTU21D;59019;47.638;18.966;2022-11-03T07:33:56;8.75;98.71
71254;HTU21D;59019;47.638;18.966;2022-11-03T07:36:24;8.94;98.43
71254;HTU21D;59019;47.638;18.966;2022-11-03T07:38:52;9.11;98.06
71254;HTU21D;59019;47.638;18.966;2022-11-03T07:41:26;9.26;97.81
71254;HTU21D;59019;47.638;18.966;2022-11-03T07:43:56;9.42;97.36
71254;HTU21D;59019;47.638;18.966;2022-11-03T07:46:23;9.65;97.18
71254;HTU21D;59019;47.638;18.966;2022-11-03T07:49:00;9.89;96.59
71254;HTU21D;59019;47.638;18.966;2022-11-03T07:51:36;10.10;95.94
71254;HTU21D;59019;47.638;18.966;2022-11-03T07:54:19;10.23;94.94
71254;HTU21D;59019;47.638;18.966;2022-11-03T07:57:32;10.40;94.74
71254;HTU21D;59019;47.638;18.966;2022-11-03T07:59:38;10.49;94.41
71254;HTU21D;59019;47.638;18.966;2022-11-03T08:04:55;10.49;95.10
71254;HTU21D;59019;47.638;18.966;2022-11-03T08:07:21;10.66;95.38
71254;HTU21D;59019;47.638;18.966;2022-11-03T08:09:46;10.84;95.31
71254;HTU21D;59019;47.638;18.966;2022-11-03T08:12:12;11.03;94.98
71254;HTU21D;59019;47.638;18.966;2022-11-03T08:14:37;10.98;95.91
71254;HTU21D;59019;47.638;18.966;2022-11-03T08:17:03;10.90;96.07
71254;HTU21D;59019;47.638;18.966;2022-11-03T08:19:29;11.03;95.81
71254;HTU21D;59019;47.638;18.966;2022-11-03T08:21:55;10.98;95.91
71254;HTU21D;59019;47.638;18.966;2022-11-03T08:24:21;11.13;95.59
71254;HTU21D;59019;47.638;18.966;2022-11-03T08:26:47;11.09;96.54
71254;HTU21D;59019;47.638;18.966;2022-11-03T08:29:12;11.01;97.35
71254;HTU21D;59019;47.638;18.966;2022-11-03T08:31:38;11.16;97.30
71254;HTU21D;59019;47.638;18.966;2022-11-03T08:34:03;11.29;97.41
71254;HTU21D;59019;47.638;18.966;2022-11-03T08:36:29;11.28;97.90
71254;HTU21D;59019;47.638;18.966;2022-11-03T08:38:54;11.39;97.49
71254;HTU21D;59019;47.638;18.966;2022-11-03T08:41:20;11.28;97.75
71254;HTU21D;59019;47.638;18.966;2022-11-03T08:43:45;11.17;98.97
71254;HTU21D;59019;47.638;18.966;2022-11-03T08:46:11;11.36;98.80
71254;HTU21D;59019;47.638;18.966;2022-11-03T08:48:36;11.51;97.86
71254;HTU21D;59019;47.638;18.966;2022-11-03T08:51:02;11.52;97.64
71254;HTU21D;59019;47.638;18.966;2022-11-03T08:53:28;11.56;97.18
71254;HTU21D;59019;47.638;18.966;2022-11-03T08:55:55;11.62;96.80
71254;HTU21D;59019;47.638;18.966;2022-11-03T08:58:21;11.72;96.59
71254;HTU21D;59019;47.638;18.966;2022-11-03T09:00:48;11.84;96.36
71254;HTU21D;59019;47.638;18.966;2022-11-03T09:03:14;11.91;96.00
71254;HTU21D;59019;47.638;18.966;2022-11-03T09:05:40;11.97;96.10
71254;HTU21D;59019;47.638;18.966;2022-11-03T09:08:05;12.06;95.92
71254;HTU21D;59019;47.638;18.966;2022-11-03T09:10:31;12.17;95.60
71254;HTU21D;59019;47.638;18.966;2022-11-03T09:12:57;11.98;95.84
71254;HTU21D;59019;47.638;18.966;2022-11-03T09:15:22;11.99;95.91
71254;HTU21D;59019;47.638;18.966;2022-11-03T09:17:48;12.13;95.95
71254;HTU21D;59019;47.638;18.966;2022-11-03T09:20:13;12.25;95.88
71254;HTU21D;59019;47.638;18.966;2022-11-03T09:22:39;12.18;95.66
71254;HTU21D;59019;47.638;18.966;2022-11-03T09:25:05;12.04;95.92
71254;HTU21D;59019;47.638;18.966;2022-11-03T09:27:31;12.02;96.03
71254;HTU21D;59019;47.638;18.966;2022-11-03T09:29:57;12.15;95.84
71254;HTU21D;59019;47.638;18.966;2022-11-03T09:32:22;12.18;96.24
71254;HTU21D;59019;47.638;18.966;2022-11-03T09:34:48;12.31;95.94
71254;HTU21D;59019;47.638;18.966;2022-11-03T09:37:14;12.37;95.32
71254;HTU21D;59019;47.638;18.966;2022-11-03T09:39:41;12.45;95.17
71254;HTU21D;59019;47.638;18.966;2022-11-03T09:42:07;12.50;94.53
71254;HTU21D;59019;47.638;18.966;2022-11-03T09:44:33;12.52;94.11
71254;HTU21D;59019;47.638;18.966;2022-11-03T09:47:00;12.57;94.23
71254;HTU21D;59019;47.638;18.966;2022-11-03T09:49:27;12.72;94.46
71254;HTU21D;59019;47.638;18.966;2022-11-03T09:51:55;12.80;93.86
71254;HTU21D;59019;47.638;18.966;2022-11-03T09:54:21;12.78;93.28
71254;HTU21D;59019;47.638;18.966;2022-11-03T09:56:47;12.73;93.30
71254;HTU21D;59019;47.638;18.966;2022-11-03T09:59:16;12.63;93.27
71254;HTU21D;59019;47.638;18.966;2022-11-03T10:01:43;12.77;92.86
71254;HTU21D;59019;47.638;18.966;2022-11-03T10:04:11;12.67;92.55
71254;HTU21D;59019;47.638;18.966;2022-11-03T10:06:38;12.35;94.02
71254;HTU21D;59019;47.638;18.966;2022-11-03T10:09:09;12.51;93.95
71254;HTU21D;59019;47.638;18.966;2022-11-03T10:11:36;12.64;93.62
71254;HTU21D;59019;47.638;18.966;2022-11-03T10:14:02;12.48;94.22
71254;HTU21D;59019;47.638;18.966;2022-11-03T10:16:29;12.64;93.71
71254;HTU21D;59019;47.638;18.966;2022-11-03T10:18:54;12.66;93.15
71254;HTU21D;59019;47.638;18.966;2022-11-03T10:21:25;12.51;93.73
71254;HTU21D;59019;47.638;18.966;2022-11-03T10:23:52;12.59;93.72
71254;HTU21D;59019;47.638;18.966;2022-11-03T10:26:19;12.64;93.53
71254;HTU21D;59019;47.638;18.966;2022-11-03T10:29:02;12.44;94.05
71254;HTU21D;59019;47.638;18.966;2022-11-03T10:31:40;12.40;94.49
71254;HTU21D;59019;47.638;18.966;2022-11-03T10:34:40;12.32;94.80
71254;HTU21D;59019;47.638;18.966;2022-11-03T10:37:15;12.30;94.65
71254;HTU21D;59019;47.638;18.966;2022-11-03T10:39:49;12.30;94.83
71254;HTU21D;59019;47.638;18.966;2022-11-03T10:42:35;12.40;95.13
71254;HTU21D;59019;47.638;18.966;2022-11-03T10:45:14;12.36;95.03
71254;HTU21D;59019;47.638;18.966;2022-11-03T10:47:42;12.02;95.77
71254;HTU21D;59019;47.638;18.966;2022-11-03T10:50:25;12.06;96.25
71254;HTU21D;59019;47.638;18.966;2022-11-03T10:52:51;12.01;95.81
71254;HTU21D;59019;47.638;18.966;2022-11-03T10:55:18;12.18;96.18
71254;HTU21D;59019;47.638;18.966;2022-11-03T10:57:44;12.31;95.45
71254;HTU21D;59019;47.638;18.966;2022-11-03T11:00:14;12.34;94.79
71254;HTU21D;59019;47.638;18.966;2022-11-03T11:02:42;12.25;94.99
71254;HTU21D;59019;47.638;18.966;2022-11-03T11:05:20;12.29;94.93
71254;HTU21D;59019;47.638;18.966;2022-11-03T11:07:48;12.23;95.00
71254;HTU21D;59019;47.638;18.966;2022-11-03T11:10:28;12.12;95.75
71254;HTU21D;59019;47.638;18.966;2022-11-03T11:15:41;12.21;95.69
71254;HTU21D;59019;47.638;18.966;2022-11-03T11:18:07;12.21;95.53
71254;HTU21D;59019;47.638;18.966;2022-11-03T11:20:37;12.29;95.43
71254;HTU21D;59019;47.638;18.966;2022-11-03T11:26:14;12.36;95.28
71254;HTU21D;59019;47.638;18.966;2022-11-03T11:31:45;12.02;96.81
71254;HTU21D;59019;47.638;18.966;2022-11-03T11:44:57;11.83;97.49
71254;HTU21D;59019;47.638;18.966;2022-11-03T11:47:46;11.72;98.29
71254;HTU21D;59019;47.638;18.966;2022-11-03T11:50:23;11.82;98.17
71254;HTU21D;59019;47.638;18.966;2022-11-03T11:53:06;11.98;97.77
71254;HTU21D;59019;47.638;18.966;2022-11-03T11:55:41;12.11;96.78
71254;HTU21D;59019;47.638;18.966;2022-11-03T12:01:03;12.12;96.65
71254;HTU21D;59019;47.638;18.966;2022-11-03T12:03:36;12.20;96.29
71254;HTU21D;59019;47.638;18.966;2022-11-03T12:06:03;12.30;96.21
71254;HTU21D;59019;47.638;18.966;2022-11-03T12:08:30;12.34;95.85
71254;HTU21D;59019;47.638;18.966;2022-11-03T12:11:00;12.38;95.97
71254;HTU21D;59019;47.638;18.966;2022-11-03T12:13:48;12.36;96.06
71254;HTU21D;59019;47.638;18.966;2022-11-03T12:16:35;12.40;95.77
71254;HTU21D;59019;47.638;18.966;2022-11-03T12:19:35;12.45;95.81
71254;HTU21D;59019;47.638;18.966;2022-11-03T12:22:09;12.44;95.69
71254;HTU21D;59019;47.638;18.966;2022-11-03T12:24:46;12.20;95.76
71254;HTU21D;59019;47.638;18.966;2022-11-03T12:29:55;12.36;96.19
71254;HTU21D;59019;47.638;18.966;2022-11-03T12:32:21;12.48;95.63
71254;HTU21D;59019;47.638;18.966;2022-11-03T12:34:47;12.43;96.03
71254;HTU21D;59019;47.638;18.966;2022-11-03T12:37:13;12.51;95.54
71254;HTU21D;59019;47.638;18.966;2022-11-03T12:39:38;12.40;95.79
71254;HTU21D;59019;47.638;18.966;2022-11-03T12:42:05;12.41;95.68
71254;HTU21D;59019;47.638;18.966;2022-11-03T12:44:31;12.40;95.66
71254;HTU21D;59019;47.638;18.966;2022-11-03T12:46:57;12.45;95.30
71254;HTU21D;59019;47.638;18.966;2022-11-03T12:49:22;12.45;95.27
71254;HTU21D;59019;47.638;18.966;2022-11-03T12:51:48;12.19;96.13
71254;HTU21D;59019;47.638;18.966;2022-11-03T12:54:13;12.06;96.55
71254;HTU21D;59019;47.638;18.966;2022-11-03T12:56:39;12.14;96.55
71254;HTU21D;59019;47.638;18.966;2022-11-03T12:59:04;12.21;96.04
71254;HTU21D;59019;47.638;18.966;2022-11-03T13:01:30;12.05;96.92
71254;HTU21D;59019;47.638;18.966;2022-11-03T13:03:57;12.13;96.86
71254;HTU21D;59019;47.638;18.966;2022-11-03T13:06:23;12.16;96.46
71254;HTU21D;59019;47.638;18.966;2022-11-03T13:08:48;12.04;96.75
71254;HTU21D;59019;47.638;18.966;2022-11-03T13:11:14;12.02;97.33
71254;HTU21D;59019;47.638;18.966;2022-11-03T13:13:58;11.98;97.62
71254;HTU21D;59019;47.638;18.966;2022-11-03T13:16:24;11.93;97.22
71254;HTU21D;59019;47.638;18.966;2022-11-03T13:18:49;11.84;97.45
71254;HTU21D;59019;47.638;18.966;2022-11-03T13:21:15;11.96;97.64
71254;HTU21D;59019;47.638;18.966;2022-11-03T13:23:41;11.88;97.86
71254;HTU21D;59019;47.638;18.966;2022-11-03T13:26:06;11.83;98.24
71254;HTU21D;59019;47.638;18.966;2022-11-03T13:28:32;11.92;98.00
71254;HTU21D;59019;47.638;18.966;2022-11-03T13:30:57;11.99;97.46
71254;HTU21D;59019;47.638;18.966;2022-11-03T13:33:23;12.04;97.18
71254;HTU21D;59019;47.638;18.966;2022-11-03T13:35:49;11.96;97.65
71254;HTU21D;59019;47.638;18.966;2022-11-03T13:38:14;11.88;97.52
71254;HTU21D;59019;47.638;18.966;2022-11-03T13:40:40;11.96;97.25
71254;HTU21D;59019;47.638;18.966;2022-11-03T13:43:06;11.88;97.27
71254;HTU21D;59019;47.638;18.966;2022-11-03T13:45:31;11.82;97.85
71254;HTU21D;59019;47.638;18.966;2022-11-03T13:47:57;11.87;97.26
71254;HTU21D;59019;47.638;18.966;2022-11-03T13:50:22;11.59;98.19
71254;HTU21D;59019;47.638;18.966;2022-11-03T13:52:48;11.59;98.74
71254;HTU21D;59019;47.638;18.966;2022-11-03T13:55:14;11.68;98.73
71254;HTU21D;59019;47.638;18.966;2022-11-03T13:57:40;11.70;98.55
71254;HTU21D;59019;47.638;18.966;2022-11-03T14:00:06;11.59;98.48
71254;HTU21D;59019;47.638;18.966;2022-11-03T14:02:33;11.18;100.12
71254;HTU21D;59019;47.638;18.966;2022-11-03T14:04:58;11.26;100.43
71254;HTU21D;59019;47.638;18.966;2022-11-03T14:07:24;11.38;100.24
71254;HTU21D;59019;47.638;18.966;2022-11-03T14:09:49;11.45;99.39
71254;HTU21D;59019;47.638;18.966;2022-11-03T14:12:15;11.48;99.10
71254;HTU21D;59019;47.638;18.966;2022-11-03T14:15:00;11.40;99.16
71254;HTU21D;59019;47.638;18.966;2022-11-03T14:17:25;11.52;99.11
71254;HTU21D;59019;47.638;18.966;2022-11-03T14:19:51;11.39;99.11
71254;HTU21D;59019;47.638;18.966;2022-11-03T14:22:21;11.53;98.90
71254;HTU21D;59019;47.638;18.966;2022-11-03T14:24:47;11.31;99.06
71254;HTU21D;59019;47.638;18.966;2022-11-03T14:27:13;11.22;99.93
71254;HTU21D;59019;47.638;18.966;2022-11-03T14:29:41;11.20;100.25
71254;HTU21D;59019;47.638;18.966;2022-11-03T14:32:08;11.14;99.52
71254;HTU21D;59019;47.638;18.966;2022-11-03T14:34:33;11.19;99.45
71254;HTU21D;59019;47.638;18.966;2022-11-03T14:36:59;11.26;98.52
71254;HTU21D;59019;47.638;18.966;2022-11-03T14:39:25;11.26;98.84
71254;HTU21D;59019;47.638;18.966;2022-11-03T14:41:52;11.18;98.73
71254;HTU21D;59019;47.638;18.966;2022-11-03T14:44:34;10.98;99.83
71254;HTU21D;59019;47.638;18.966;2022-11-03T14:47:03;10.95;100.22
71254;HTU21D;59019;47.638;18.966;2022-11-03T14:49:29;10.93;100.09
71254;HTU21D;59019;47.638;18.966;2022-11-03T14:51:55;10.95;100.12
71254;HTU21D;59019;47.638;18.966;2022-11-03T14:54:24;10.94;100.06
71254;HTU21D;59019;47.638;18.966;2022-11-03T14:56:50;10.92;100.21
71254;HTU21D;59019;47.638;18.966;2022-11-03T14:59:16;10.90;100.61
71254;HTU21D;59019;47.638;18.966;2022-11-03T15:01:41;10.92;100.07
71254;HTU21D;59019;47.638;18.966;2022-11-03T15:04:07;11.02;99.70
71254;HTU21D;59019;47.638;18.966;2022-11-03T15:06:34;11.07;99.22
71254;HTU21D;59019;47.638;18.966;2022-11-03T15:09:00;10.92;99.19
71254;HTU21D;59019;47.638;18.966;2022-11-03T15:11:25;10.96;99.65
71254;HTU21D;59019;47.638;18.966;2022-11-03T15:13:51;10.92;99.22
71254;HTU21D;59019;47.638;18.966;2022-11-03T15:16:18;10.90;99.05
71254;HTU21D;59019;47.638;18.966;2022-11-03T15:18:44;10.82;100.21
71254;HTU21D;59019;47.638;18.966;2022-11-03T15:21:09;10.83;100.28
71254;HTU21D;59019;47.638;18.966;2022-11-03T15:23:35;10.80;100.80
71254;HTU21D;59019;47.638;18.966;2022-11-03T15:26:01;10.85;100.45
71254;HTU21D;59019;47.638;18.966;2022-11-03T15:28:26;10.98;99.89
71254;HTU21D;59019;47.638;18.966;2022-11-03T15:30:52;10.87;100.14
71254;HTU21D;59019;47.638;18.966;2022-11-03T15:33:18;10.84;100.33
71254;HTU21D;59019;47.638;18.966;2022-11-03T15:35:45;10.81;100.24
71254;HTU21D;59019;47.638;18.966;2022-11-03T15:38:10;10.75;100.25
71254;HTU21D;59019;47.638;18.966;2022-11-03T15:40:37;10.65;100.64
71254;HTU21D;59019;47.638;18.966;2022-11-03T15:43:04;10.59;100.88
71254;HTU21D;59019;47.638;18.966;2022-11-03T15:45:31;10.56;101.05
71254;HTU21D;59019;47.638;18.966;2022-11-03T15:47:57;10.66;100.47
71254;HTU21D;59019;47.638;18.966;2022-11-03T15:50:23;10.78;100.02
71254;HTU21D;59019;47.638;18.966;2022-11-03T15:52:50;10.68;99.54
71254;HTU21D;59019;47.638;18.966;2022-11-03T15:55:16;10.59;100.75
71254;HTU21D;59019;47.638;18.966;2022-11-03T15:57:42;10.62;100.37
71254;HTU21D;59019;47.638;18.966;2022-11-03T16:00:09;10.63;100.21
71254;HTU21D;59019;47.638;18.966;2022-11-03T16:02:35;10.53;100.32
71254;HTU21D;59019;47.638;18.966;2022-11-03T16:05:01;10.43;100.35
71254;HTU21D;59019;47.638;18.966;2022-11-03T16:07:27;10.35;100.48
71254;HTU21D;59019;47.638;18.966;2022-11-03T16:09:54;10.38;100.84
71254;HTU21D;59019;47.638;18.966;2022-11-03T16:12:22;10.33;100.64
71254;HTU21D;59019;47.638;18.966;2022-11-03T16:14:51;10.36;100.84
71254;HTU21D;59019;47.638;18.966;2022-11-03T16:17:17;10.29;100.61
71254;HTU21D;59019;47.638;18.966;2022-11-03T16:19:43;10.23;100.98
71254;HTU21D;59019;47.638;18.966;2022-11-03T16:22:09;10.19;101.10
71254;HTU21D;59019;47.638;18.966;2022-11-03T16:24:34;10.26;101.06
71254;HTU21D;59019;47.638;18.966;2022-11-03T16:27:00;9.91;102.21
71254;HTU21D;59019;47.638;18.966;2022-11-03T16:29:25;9.92;102.48
71254;HTU21D;59019;47.638;18.966;2022-11-03T16:31:53;9.92;101.94
71254;HTU21D;59019;47.638;18.966;2022-11-03T16:34:18;9.89;102.03
71254;HTU21D;59019;47.638;18.966;2022-11-03T16:36:44;9.95;101.92
71254;HTU21D;59019;47.638;18.966;2022-11-03T16:39:09;9.71;102.60
71254;HTU21D;59019;47.638;18.966;2022-11-03T16:41:37;9.74;103.09